Etusivu
METAR-TAF:

METAR-TAF

Lentoasemat :

Ouagadougou, Burkina Faso

Ouagadougoun kansainvälinen lentoasema

Leveyspiiri: 12-21N, Pituuspiiri: 001-31W, korkeus merenpinnasta: 316 m

Tämänhetkinen sää

Tämä raportti tehtiin 27 minuuttia sitten, kello 07.00 UTC
tyyntä
Lämpötila 17°C
Kosteus 25%
Ilmanpaine 1013 hPa
Näkyvyys: 4000 m
laajalle levinnyttä pölyä

METAR: DFFD 190700Z 00000KT 4000 DU NSC 17/M03 Q1013 NOSIG

Aika: 07:27 (07:27 UTC)

Sääennuste

Tämä raportti tehtiin 2 tuntia ja 27 minuuttia sitten, kello 05.00 UTC
Ennuste voimassa 19. päivästä klo 06 UTC - 20. päivään klo 12 UTC
Tuuli 8 kn idästä
Näkyvyys: 8000 m
Ajoittain
19. päivästä klo 06 UTC - 19. päivään klo 10 UTC
Näkyvyys: 3500 m
laajalle levinnyttä pölyä
Ajoittain
19. päivästä klo 17 UTC - 19. päivään klo 20 UTC
Näkyvyys: 4000 m
laajalle levinnyttä pölyä

TAF: DFFD 190500Z 1906/2012 08008KT 8000 NSC TEMPO 1906/1910 3500 DU TEMPO 1917/1920 4000 DU

Säähavainnot ja -ennusteet yli 4000 lentoasemalta (METAR- ja TAF-raportit).

Käytössä olevat sääasemat on merkitty karttaan keltaisilla ja punaisilla pisteillä.

Aseta hiiri pisteen päälle nähdäksesi sääaseman nimen.

Klikkaa sitten nähdäksesi säähavainnot ja -ennusteet.

Kartan vaihtaminen: klikkaa mustalla rastilla varustettuja vihreitä pisteitä, niin voit zoomata sisään; viivalla varustettua vihreää pistettä, niin voit zoomata ulos tai vihreitä nuolia, niin pääset viereisille kartoille.


METAR-TAF: